Time;durP1;ratioP1;P1;durP2;ratioP2;P2;SDS_P1;SDS_P2;PMS_P1;PMS_P2;Temp;Humidity;BMP_temperature;BMP_pressure;BME280_temperature;BME280_humidity;BME280_pressure;Samples;Min_cycle;Max_cycle;Signal;HPM_P1;HPM_P2
2023/07/09 00:01:17;;;;;;;8.00;7.20;;;22.80;89.10;;;;;;5048869;28;20477;-76
2023/07/09 00:03:43;;;;;;;10.60;6.40;;;22.70;89.60;;;;;;5052545;28;20497;-75
2023/07/09 00:06:09;;;;;;;10.67;8.20;;;22.70;90.00;;;;;;5067472;28;20383;-75
2023/07/09 00:08:36;;;;;;;9.50;7.40;;;22.70;90.40;;;;;;5069662;28;20423;-78
2023/07/09 00:11:02;;;;;;;10.37;7.33;;;22.60;90.50;;;;;;5037207;28;20437;-76
2023/07/09 00:13:28;;;;;;;10.17;7.17;;;22.60;90.80;;;;;;5045766;28;20502;-77
2023/07/09 00:16:00;;;;;;;6.67;5.97;;;22.60;91.00;;;;;;5049445;28;20464;-75
2023/07/09 00:18:26;;;;;;;8.17;7.13;;;22.50;91.20;;;;;;5050754;28;20193;-75
2023/07/09 00:20:51;;;;;;;10.00;7.23;;;22.50;91.60;;;;;;5063665;28;20494;-76
2023/07/09 00:23:20;;;;;;;7.10;6.40;;;22.50;92.00;;;;;;5049424;28;20235;-74
2023/07/09 00:25:46;;;;;;;8.23;6.27;;;22.40;92.20;;;;;;5062974;28;20640;-77
2023/07/09 00:28:18;;;;;;;9.60;7.90;;;22.40;92.60;;;;;;5046091;28;20412;-77
2023/07/09 00:30:48;;;;;;;9.33;7.00;;;22.40;92.90;;;;;;5036180;28;20741;-73
2023/07/09 00:33:15;;;;;;;8.77;7.10;;;22.40;93.20;;;;;;5057445;28;20428;-75
2023/07/09 00:35:52;;;;;;;9.80;7.37;;;22.30;93.30;;;;;;5065204;28;20490;-73
2023/07/09 00:38:24;;;;;;;11.57;9.97;;;22.30;93.70;;;;;;5031024;28;20416;-75
2023/07/09 00:41:04;;;;;;;15.13;10.10;;;22.30;94.20;;;;;;5068470;28;20433;-76
2023/07/09 00:43:35;;;;;;;11.57;8.63;;;22.30;94.60;;;;;;5111733;28;20406;-77
2023/07/09 00:46:20;;;;;;;9.10;7.90;;;22.30;94.70;;;;;;5081953;28;20440;-74
2023/07/09 00:48:49;;;;;;;10.00;7.83;;;22.30;95.00;;;;;;5083982;28;20493;-73
2023/07/09 00:51:20;;;;;;;9.27;6.47;;;22.30;95.40;;;;;;5089365;28;20729;-74
2023/07/09 00:53:49;;;;;;;10.00;6.83;;;22.30;95.60;;;;;;5089621;28;20374;-76
2023/07/09 00:56:24;;;;;;;10.30;6.33;;;22.30;95.80;;;;;;5107481;28;20464;-77
2023/07/09 00:58:50;;;;;;;7.73;6.80;;;22.30;96.10;;;;;;5070787;28;20487;-74
2023/07/09 01:01:18;;;;;;;11.43;7.17;;;22.20;96.30;;;;;;5061354;28;20420;-75
2023/07/09 01:03:52;;;;;;;9.73;7.33;;;22.20;96.50;;;;;;5049488;28;20213;-75
2023/07/09 01:06:32;;;;;;;9.90;7.10;;;22.20;96.80;;;;;;5065828;28;20456;-76
2023/07/09 01:09:00;;;;;;;10.00;6.63;;;22.20;96.90;;;;;;5080715;28;20388;-74
2023/07/09 01:11:26;;;;;;;7.00;6.30;;;22.20;97.20;;;;;;5087342;28;20479;-74
2023/07/09 01:13:56;;;;;;;8.40;5.70;;;22.20;97.30;;;;;;5104287;28;20385;-73
2023/07/09 01:16:24;;;;;;;8.03;6.23;;;22.10;97.20;;;;;;5041443;28;20436;-74
2023/07/09 01:18:52;;;;;;;11.93;7.40;;;22.10;97.30;;;;;;5076496;28;20402;-74
2023/07/09 01:21:19;;;;;;;10.47;7.50;;;22.10;97.40;;;;;;5086283;28;20507;-73
2023/07/09 01:23:47;;;;;;;9.17;6.70;;;22.10;97.50;;;;;;5084224;28;20857;-74
2023/07/09 01:26:20;;;;;;;8.97;6.50;;;22.10;97.60;;;;;;5084603;28;20461;-76
2023/07/09 01:28:47;;;;;;;7.37;6.43;;;22.10;97.80;;;;;;5086302;28;20373;-74
2023/07/09 01:31:15;;;;;;;6.33;5.63;;;22.00;98.00;;;;;;5076949;28;20419;-73
2023/07/09 01:33:44;;;;;;;7.23;6.13;;;22.00;98.30;;;;;;5103454;28;20403;-73
2023/07/09 01:36:17;;;;;;;6.30;5.57;;;21.90;98.60;;;;;;5104580;28;20433;-74
2023/07/09 01:38:43;;;;;;;6.97;6.03;;;21.90;98.90;;;;;;5084522;28;20430;-73
2023/07/09 01:41:13;;;;;;;7.70;5.67;;;21.80;99.20;;;;;;5102649;28;20449;-74
2023/07/09 01:43:41;;;;;;;7.90;6.30;;;21.80;99.50;;;;;;5087426;28;20445;-73
2023/07/09 01:46:08;;;;;;;6.73;5.70;;;21.70;99.80;;;;;;5087859;28;20462;-74
2023/07/09 01:48:40;;;;;;;5.87;5.27;;;21.70;99.90;;;;;;5104432;28;20830;-74
2023/07/09 01:51:16;;;;;;;6.20;5.30;;;21.70;99.90;;;;;;5102521;28;20442;-73
2023/07/09 01:53:44;;;;;;;7.37;5.20;;;21.70;99.90;;;;;;5086117;28;20499;-74
2023/07/09 01:56:10;;;;;;;5.20;4.27;;;21.60;99.90;;;;;;5103938;28;20434;-72
2023/07/09 01:58:41;;;;;;;5.67;5.10;;;21.60;99.90;;;;;;5084574;28;20469;-74
2023/07/09 02:01:08;;;;;;;7.03;6.10;;;21.60;99.90;;;;;;5067638;28;20451;-73
2023/07/09 02:03:34;;;;;;;7.47;6.17;;;21.60;99.90;;;;;;5101331;28;20530;-74
2023/07/09 02:06:02;;;;;;;5.57;4.97;;;21.60;99.90;;;;;;5103491;28;20450;-73
2023/07/09 02:08:27;;;;;;;8.03;6.13;;;21.50;99.90;;;;;;5084697;28;20499;-73
2023/07/09 02:10:54;;;;;;;8.50;6.53;;;21.50;99.90;;;;;;5076194;28;20443;-74
2023/07/09 02:13:19;;;;;;;9.80;7.10;;;21.50;99.90;;;;;;5084457;28;20466;-73
2023/07/09 02:15:48;;;;;;;6.87;6.17;;;21.50;99.90;;;;;;5061440;28;20204;-75
2023/07/09 02:18:14;;;;;;;6.90;6.20;;;21.50;99.90;;;;;;5055350;28;20165;-74
2023/07/09 02:20:39;;;;;;;6.70;5.50;;;21.40;99.90;;;;;;5084429;28;20464;-74
2023/07/09 02:23:07;;;;;;;9.90;6.07;;;21.40;99.90;;;;;;5088280;28;20179;-75
2023/07/09 02:25:33;;;;;;;6.67;5.97;;;21.40;99.90;;;;;;5068912;28;20204;-73
2023/07/09 02:27:59;;;;;;;6.67;5.50;;;21.40;99.90;;;;;;5084729;28;20410;-73
2023/07/09 02:30:25;;;;;;;10.00;6.50;;;21.30;99.90;;;;;;5090980;28;20450;-73
2023/07/09 02:32:50;;;;;;;7.50;6.80;;;21.40;99.90;;;;;;5032875;28;20459;-73
2023/07/09 02:35:16;;;;;;;7.40;6.60;;;21.40;99.90;;;;;;5084831;28;20199;-73
2023/07/09 02:37:42;;;;;;;8.33;6.07;;;21.30;99.90;;;;;;5083564;28;20181;-72
2023/07/09 02:40:09;;;;;;;8.70;5.77;;;21.30;99.90;;;;;;5083878;28;20192;-73
2023/07/09 02:42:35;;;;;;;6.33;5.60;;;21.30;99.90;;;;;;5101856;28;20230;-73
2023/07/09 02:45:01;;;;;;;8.23;6.77;;;21.20;99.90;;;;;;5093483;28;20415;-73
2023/07/09 02:47:29;;;;;;;8.60;6.90;;;21.20;99.90;;;;;;5056890;28;20212;-74
2023/07/09 02:49:57;;;;;;;9.77;6.07;;;21.20;99.90;;;;;;5084822;28;20404;-74
2023/07/09 02:52:23;;;;;;;8.33;6.40;;;21.20;99.90;;;;;;5101995;28;20808;-73
2023/07/09 02:54:48;;;;;;;6.90;6.20;;;21.20;99.90;;;;;;5103103;28;20245;-74
2023/07/09 02:57:14;;;;;;;7.70;5.67;;;21.20;99.90;;;;;;5102357;28;20467;-77
2023/07/09 02:59:39;;;;;;;6.50;5.60;;;21.20;99.90;;;;;;5078630;28;20267;-73
2023/07/09 03:02:05;;;;;;;7.87;6.27;;;21.20;99.90;;;;;;5046719;28;20182;-73
2023/07/09 03:04:31;;;;;;;7.40;6.10;;;21.10;99.90;;;;;;5069679;28;20317;-73
2023/07/09 03:06:57;;;;;;;9.23;5.30;;;21.20;99.90;;;;;;5081168;28;20455;-73
2023/07/09 03:09:23;;;;;;;7.47;6.37;;;21.10;99.90;;;;;;5081861;28;20212;-72
2023/07/09 03:11:50;;;;;;;9.03;5.53;;;21.10;99.90;;;;;;5081971;28;20664;-75
2023/07/09 03:14:17;;;;;;;6.83;5.67;;;21.00;99.90;;;;;;5080717;28;20419;-73
2023/07/09 03:16:43;;;;;;;6.67;5.50;;;21.00;99.90;;;;;;5073412;28;20412;-74
2023/07/09 03:19:09;;;;;;;6.87;6.13;;;21.00;99.90;;;;;;5085280;28;20522;-74
2023/07/09 03:21:34;;;;;;;7.80;6.60;;;20.90;99.90;;;;;;5081777;28;20454;-73
2023/07/09 03:24:00;;;;;;;10.00;6.10;;;20.90;99.90;;;;;;5078912;28;20264;-72
2023/07/09 03:26:26;;;;;;;7.30;6.43;;;20.90;99.90;;;;;;5079754;28;20239;-73
2023/07/09 03:28:53;;;;;;;6.57;5.00;;;21.00;99.90;;;;;;5082343;28;20556;-74
2023/07/09 03:31:19;;;;;;;7.40;6.17;;;21.00;99.90;;;;;;5061118;28;20413;-76
2023/07/09 03:33:51;;;;;;;7.73;4.40;;;21.00;99.90;;;;;;5050564;28;20487;-72
2023/07/09 03:36:18;;;;;;;7.87;6.03;;;20.90;99.90;;;;;;5085279;28;20411;-75
2023/07/09 03:38:44;;;;;;;7.10;5.77;;;20.90;99.90;;;;;;5082263;28;20473;-78
2023/07/09 03:41:09;;;;;;;6.60;5.70;;;20.90;99.90;;;;;;5082765;28;20503;-74
2023/07/09 03:43:35;;;;;;;7.93;5.40;;;20.90;99.90;;;;;;5087204;28;20232;-79
2023/07/09 03:46:00;;;;;;;7.60;5.93;;;21.00;99.90;;;;;;5070009;28;20229;-73
2023/07/09 03:48:27;;;;;;;5.70;5.10;;;21.00;99.90;;;;;;5069773;28;20173;-75
2023/07/09 03:50:52;;;;;;;7.83;5.50;;;21.00;99.90;;;;;;5051739;28;20194;-74
2023/07/09 03:53:18;;;;;;;7.03;6.00;;;21.00;99.90;;;;;;5072333;28;20434;-74
2023/07/09 03:55:47;;;;;;;7.17;5.37;;;21.00;99.90;;;;;;5087454;28;20735;-73
2023/07/09 03:58:12;;;;;;;5.80;5.23;;;21.00;99.90;;;;;;5089494;28;20185;-74
2023/07/09 04:00:38;;;;;;;6.77;5.80;;;21.00;99.90;;;;;;5076815;28;20473;-73
2023/07/09 04:03:04;;;;;;;8.53;6.20;;;21.00;99.90;;;;;;5078142;28;20207;-72
2023/07/09 04:05:29;;;;;;;7.03;5.97;;;21.10;99.90;;;;;;5098150;28;20227;-74
2023/07/09 04:07:55;;;;;;;6.20;5.60;;;21.10;99.90;;;;;;5097842;28;20180;-72
2023/07/09 04:10:22;;;;;;;8.90;5.90;;;21.10;99.90;;;;;;5097001;28;20618;-74
2023/07/09 04:12:47;;;;;;;6.30;5.47;;;21.20;99.90;;;;;;5098192;28;20320;-73
2023/07/09 04:15:13;;;;;;;8.97;6.00;;;21.30;99.90;;;;;;5090034;28;20691;-72
2023/07/09 04:17:40;;;;;;;7.80;5.50;;;21.30;99.90;;;;;;5078066;28;20295;-72
2023/07/09 04:20:07;;;;;;;7.50;5.90;;;21.30;99.90;;;;;;5074480;28;20258;-72
2023/07/09 04:22:34;;;;;;;8.20;5.43;;;21.40;99.90;;;;;;5096392;28;20434;-72
2023/07/09 04:25:00;;;;;;;9.70;6.00;;;21.40;99.90;;;;;;5097404;28;20497;-73
2023/07/09 04:27:29;;;;;;;7.37;6.10;;;21.50;99.90;;;;;;5097472;28;20640;-72
2023/07/09 04:29:55;;;;;;;8.17;6.63;;;21.50;99.90;;;;;;5090838;28;20216;-72
2023/07/09 04:32:21;;;;;;;9.63;6.00;;;21.60;99.90;;;;;;5076326;28;20422;-72
2023/07/09 04:34:47;;;;;;;9.80;6.37;;;21.60;99.90;;;;;;5097355;28;20814;-72
2023/07/09 04:37:16;;;;;;;8.43;6.17;;;21.60;99.90;;;;;;5079812;28;20461;-72
2023/07/09 04:39:42;;;;;;;9.73;6.50;;;21.60;99.90;;;;;;5096855;28;20884;-74
2023/07/09 04:42:13;;;;;;;11.10;5.77;;;21.60;99.90;;;;;;5097367;28;20756;-72
2023/07/09 04:44:39;;;;;;;6.53;5.63;;;21.70;99.90;;;;;;5092344;28;20789;-72
2023/07/09 04:47:05;;;;;;;6.23;5.53;;;21.70;99.90;;;;;;5059568;28;20459;-72
2023/07/09 04:49:31;;;;;;;7.80;5.63;;;21.70;99.90;;;;;;5098112;28;20405;-73
2023/07/09 04:51:56;;;;;;;8.53;5.80;;;21.80;99.90;;;;;;5097418;28;20180;-72
2023/07/09 04:54:23;;;;;;;7.27;6.00;;;21.90;99.90;;;;;;5099993;28;20156;-72
2023/07/09 04:56:49;;;;;;;7.90;5.87;;;22.20;99.60;;;;;;5098569;28;20180;-72
2023/07/09 04:59:14;;;;;;;7.50;5.43;;;22.60;97.60;;;;;;5097403;28;20488;-72
2023/07/09 05:01:40;;;;;;;6.20;5.00;;;23.00;94.40;;;;;;5073560;28;20423;-71
2023/07/09 05:04:06;;;;;;;7.60;5.87;;;23.40;92.10;;;;;;5096920;28;20208;-73
2023/07/09 05:06:33;;;;;;;6.03;4.90;;;23.70;89.50;;;;;;5096813;28;20873;-73
2023/07/09 05:08:58;;;;;;;5.70;4.97;;;24.00;86.00;;;;;;5096459;28;20535;-75
2023/07/09 05:11:24;;;;;;;6.17;4.77;;;24.30;82.70;;;;;;5092702;28;20581;-72
2023/07/09 05:13:50;;;;;;;4.63;4.13;;;24.50;80.00;;;;;;5096464;28;20184;-73
2023/07/09 05:16:16;;;;;;;5.57;4.93;;;24.80;77.00;;;;;;5075792;28;20196;-72
2023/07/09 05:18:42;;;;;;;6.97;5.57;;;25.00;73.70;;;;;;5096096;28;20176;-72
2023/07/09 05:21:08;;;;;;;6.33;5.30;;;25.20;71.30;;;;;;5096020;28;20415;-71
2023/07/09 05:23:33;;;;;;;7.07;5.00;;;25.40;69.20;;;;;;5097215;28;20343;-72
2023/07/09 05:26:01;;;;;;;7.07;5.63;;;25.50;67.90;;;;;;5096106;28;20475;-73
2023/07/09 05:28:28;;;;;;;6.87;4.73;;;25.60;66.60;;;;;;5095882;28;20191;-73
2023/07/09 05:30:54;;;;;;;5.90;4.20;;;25.90;65.20;;;;;;5078892;28;20712;-72
2023/07/09 05:33:19;;;;;;;9.20;5.00;;;26.10;63.60;;;;;;5056592;28;20385;-72
2023/07/09 05:35:46;;;;;;;7.27;5.60;;;26.30;62.20;;;;;;5058846;28;20189;-72
2023/07/09 05:38:12;;;;;;;10.70;5.93;;;26.50;61.30;;;;;;5096064;28;20255;-73
2023/07/09 05:40:38;;;;;;;6.70;5.30;;;26.40;59.00;;;;;;5095971;28;20840;-72
2023/07/09 05:43:04;;;;;;;7.93;7.13;;;26.30;59.40;;;;;;5096727;28;20576;-73
2023/07/09 05:45:30;;;;;;;6.03;5.10;;;26.40;59.60;;;;;;5077662;28;20280;-73
2023/07/09 05:47:58;;;;;;;6.70;5.90;;;26.60;59.10;;;;;;5056420;28;20210;-71
2023/07/09 05:50:23;;;;;;;7.40;6.17;;;26.80;58.20;;;;;;5081910;28;20397;-73
2023/07/09 05:52:49;;;;;;;10.47;6.10;;;27.00;57.70;;;;;;5095995;28;20396;-73
2023/07/09 05:55:15;;;;;;;5.93;5.40;;;26.90;56.90;;;;;;5095755;28;20177;-73
2023/07/09 05:57:40;;;;;;;9.20;5.60;;;26.90;57.30;;;;;;5095942;28;20180;-72
2023/07/09 06:00:08;;;;;;;7.77;5.40;;;26.90;57.20;;;;;;5083363;28;20532;-71
2023/07/09 06:02:40;;;;;;;7.23;6.27;;;27.10;56.70;;;;;;5056491;28;20159;-72
2023/07/09 06:05:09;;;;;;;7.57;5.60;;;27.20;56.40;;;;;;5089563;28;20479;-73
2023/07/09 06:07:35;;;;;;;7.77;5.70;;;27.40;56.30;;;;;;5096022;28;20613;-72
2023/07/09 06:10:00;;;;;;;5.90;4.97;;;27.60;55.50;;;;;;5093896;28;20477;-72
2023/07/09 06:12:26;;;;;;;6.00;4.70;;;27.60;55.30;;;;;;5077269;28;20249;-72
2023/07/09 06:14:51;;;;;;;9.43;6.00;;;27.60;55.10;;;;;;5092644;28;20197;-72
2023/07/09 06:17:17;;;;;;;8.20;5.43;;;27.70;54.50;;;;;;5087901;28;20192;-73
2023/07/09 06:19:42;;;;;;;5.80;5.23;;;27.70;54.70;;;;;;5095144;28;20206;-71
2023/07/09 06:22:08;;;;;;;8.40;5.17;;;27.90;54.10;;;;;;5095441;28;20253;-73
2023/07/09 06:24:34;;;;;;;9.70;5.20;;;27.80;54.20;;;;;;5095607;28;20528;-72
2023/07/09 06:26:59;;;;;;;6.80;5.80;;;27.90;53.50;;;;;;5095101;28;20549;-73
2023/07/09 06:29:25;;;;;;;5.30;4.70;;;28.00;53.40;;;;;;5094517;28;20212;-72
2023/07/09 06:31:50;;;;;;;5.87;5.27;;;28.20;53.20;;;;;;5084010;28;20242;-73
2023/07/09 06:34:16;;;;;;;8.37;5.27;;;28.30;52.60;;;;;;5095397;28;20180;-72
2023/07/09 06:36:42;;;;;;;6.60;5.70;;;28.50;52.60;;;;;;5095429;28;20188;-73
2023/07/09 06:39:08;;;;;;;6.10;5.50;;;28.70;52.20;;;;;;5095818;28;20282;-72
2023/07/09 06:41:38;;;;;;;5.07;4.53;;;28.70;51.70;;;;;;5094811;28;20172;-73
2023/07/09 06:44:06;;;;;;;7.17;5.30;;;28.90;51.60;;;;;;5077601;28;20172;-72
2023/07/09 06:46:31;;;;;;;6.17;5.20;;;29.00;51.20;;;;;;5067258;28;20457;-73
2023/07/09 06:48:57;;;;;;;6.27;4.83;;;29.20;51.00;;;;;;5096549;28;20411;-72
2023/07/09 06:51:22;;;;;;;7.00;4.97;;;29.30;50.70;;;;;;5095673;28;20276;-73
2023/07/09 06:53:50;;;;;;;8.50;6.07;;;29.40;50.20;;;;;;5095533;28;20180;-73
2023/07/09 06:56:16;;;;;;;6.60;5.53;;;29.50;50.00;;;;;;5095636;28;20196;-73
2023/07/09 06:58:41;;;;;;;7.00;5.17;;;29.40;50.40;;;;;;5095332;28;20651;-73
2023/07/09 07:01:08;;;;;;;9.73;5.57;;;29.20;50.60;;;;;;5051247;28;20220;-73
2023/07/09 07:03:34;;;;;;;5.70;4.83;;;29.20;50.60;;;;;;5095371;28;20219;-74
2023/07/09 07:06:00;;;;;;;5.90;5.10;;;29.20;50.90;;;;;;5095181;28;20856;-73
2023/07/09 07:08:26;;;;;;;7.17;5.87;;;29.20;50.80;;;;;;5095225;28;20172;-72
2023/07/09 07:11:03;;;;;;;7.10;5.83;;;29.20;50.70;;;;;;5085516;28;20241;-72
2023/07/09 07:13:34;;;;;;;6.27;5.67;;;29.20;50.90;;;;;;5092759;28;20429;-74
2023/07/09 07:16:00;;;;;;;7.50;5.13;;;29.10;51.10;;;;;;5069558;28;20847;-73
2023/07/09 07:18:26;;;;;;;7.73;6.10;;;29.10;51.30;;;;;;5080659;28;20476;-74
2023/07/09 07:20:52;;;;;;;6.53;5.37;;;29.00;51.30;;;;;;5098094;28;20521;-74
2023/07/09 07:23:18;;;;;;;9.20;6.00;;;28.90;51.70;;;;;;5098844;28;20184;-74
2023/07/09 07:25:46;;;;;;;5.63;5.07;;;28.70;52.10;;;;;;5098799;28;20207;-74
2023/07/09 07:28:12;;;;;;;5.07;4.60;;;28.80;52.20;;;;;;5099115;28;20180;-73
2023/07/09 07:30:37;;;;;;;6.93;5.27;;;28.90;51.90;;;;;;5078820;28;20507;-73
2023/07/09 07:33:03;;;;;;;7.37;5.50;;;29.00;51.80;;;;;;5075156;28;20418;-74
2023/07/09 07:35:28;;;;;;;14.40;5.47;;;29.10;51.50;;;;;;5099325;28;20196;-73
2023/07/09 07:37:54;;;;;;;11.33;5.30;;;29.10;51.80;;;;;;5100267;28;20168;-75
2023/07/09 07:40:20;;;;;;;7.40;5.43;;;29.00;51.90;;;;;;5105830;28;20345;-72
2023/07/09 07:42:46;;;;;;;7.20;6.17;;;28.80;52.30;;;;;;5107686;28;20189;-73
2023/07/09 07:45:12;;;;;;;5.53;5.00;;;28.70;52.40;;;;;;5062677;28;20462;-74
2023/07/09 07:47:39;;;;;;;7.10;5.57;;;28.50;53.00;;;;;;5104613;28;20204;-74
2023/07/09 07:50:06;;;;;;;6.37;5.77;;;28.30;53.50;;;;;;5105130;28;20211;-73
2023/07/09 07:52:32;;;;;;;6.30;5.27;;;28.20;53.70;;;;;;5088127;28;20403;-75
2023/07/09 07:54:58;;;;;;;6.10;5.13;;;28.10;54.00;;;;;;5073812;28;20410;-74
2023/07/09 07:57:27;;;;;;;5.90;5.30;;;28.10;53.90;;;;;;5093125;28;20841;-75
2023/07/09 07:59:52;;;;;;;6.70;5.27;;;28.10;54.70;;;;;;5101844;28;20292;-73
2023/07/09 08:02:18;;;;;;;7.20;4.90;;;28.10;54.20;;;;;;5066957;28;20431;-73
2023/07/09 08:04:44;;;;;;;8.83;5.60;;;28.20;54.10;;;;;;5107782;28;20243;-74
2023/07/09 08:07:10;;;;;;;5.53;5.03;;;28.30;53.80;;;;;;5088237;28;20224;-75
2023/07/09 08:09:36;;;;;;;8.27;5.37;;;28.40;53.80;;;;;;5092014;28;20263;-76
2023/07/09 08:12:08;;;;;;;7.50;5.27;;;28.60;53.70;;;;;;5089798;28;20403;-74
2023/07/09 08:14:35;;;;;;;5.83;4.90;;;28.70;52.90;;;;;;5105124;28;20405;-75
2023/07/09 08:17:00;;;;;;;6.00;5.00;;;28.80;52.30;;;;;;5086129;28;20419;-74
2023/07/09 08:19:26;;;;;;;5.50;5.00;;;28.80;52.50;;;;;;5067666;28;20424;-73
2023/07/09 08:21:51;;;;;;;7.67;5.50;;;28.90;52.50;;;;;;5096752;28;20188;-74
2023/07/09 08:24:18;;;;;;;6.70;5.00;;;29.10;52.40;;;;;;5105634;28;20245;-73
2023/07/09 08:26:44;;;;;;;5.90;5.40;;;29.20;52.40;;;;;;5104595;28;20518;-74
2023/07/09 08:29:09;;;;;;;7.60;5.20;;;29.30;52.30;;;;;;5088451;28;20438;-73
2023/07/09 08:31:35;;;;;;;5.80;5.10;;;29.40;51.90;;;;;;5069453;28;20264;-74
2023/07/09 08:34:01;;;;;;;6.90;5.47;;;29.40;51.50;;;;;;5064932;28;20162;-75
2023/07/09 08:36:27;;;;;;;5.57;5.07;;;29.50;51.70;;;;;;5099661;28;20502;-73
2023/07/09 08:38:53;;;;;;;5.63;5.07;;;29.50;51.90;;;;;;5090290;28;20476;-73
2023/07/09 08:41:32;;;;;;;8.80;5.03;;;29.50;51.80;;;;;;5110011;28;20185;-74
2023/07/09 08:44:13;;;;;;;7.40;5.20;;;29.70;51.60;;;;;;5088640;28;20219;-73
2023/07/09 08:47:14;;;;;;;7.70;5.43;;;29.80;51.20;;;;;;5040770;28;20472;-75
2023/07/09 08:49:40;;;;;;;9.10;6.17;;;29.80;50.90;;;;;;5067312;28;20440;-74
2023/07/09 08:52:38;;;;;;;6.27;5.60;;;29.90;51.10;;;;;;5050980;28;20399;-76
2023/07/09 08:55:11;;;;;;;6.27;4.40;;;30.10;50.90;;;;;;5049354;28;20185;-74
2023/07/09 08:58:10;;;;;;;9.97;5.60;;;30.30;50.60;;;;;;5068648;28;20424;-74
2023/07/09 09:00:58;;;;;;;5.03;4.53;;;30.40;49.80;;;;;;5045079;28;20762;-77
2023/07/09 09:03:38;;;;;;;6.17;5.43;;;30.50;49.60;;;;;;5087969;28;20457;-75
2023/07/09 09:06:15;;;;;;;6.10;5.30;;;30.60;49.30;;;;;;5089202;28;20486;-77
2023/07/09 09:09:02;;;;;;;7.40;5.27;;;30.70;49.00;;;;;;5077389;28;20497;-74
2023/07/09 09:11:46;;;;;;;6.00;5.10;;;30.80;48.60;;;;;;5071437;28;20438;-74
2023/07/09 09:14:32;;;;;;;6.13;5.53;;;30.70;48.60;;;;;;5106847;28;20403;-74
2023/07/09 09:16:59;;;;;;;5.57;4.90;;;30.70;48.80;;;;;;5089278;28;20478;-74
2023/07/09 09:19:37;;;;;;;8.20;5.20;;;30.80;48.80;;;;;;5088910;28;20434;-78
2023/07/09 09:22:08;;;;;;;9.83;5.80;;;30.90;48.70;;;;;;5074027;28;20392;-76
2023/07/09 09:24:36;;;;;;;7.57;5.67;;;30.90;48.20;;;;;;5113809;28;20419;-76
2023/07/09 09:27:02;;;;;;;6.57;5.87;;;30.90;48.40;;;;;;5091222;28;20421;-77
2023/07/09 09:29:28;;;;;;;6.20;5.57;;;31.00;48.30;;;;;;5074635;28;20409;-76
2023/07/09 09:31:56;;;;;;;7.00;5.93;;;31.00;48.20;;;;;;5059019;28;20428;-78
2023/07/09 09:34:29;;;;;;;6.73;5.70;;;31.00;48.20;;;;;;5103386;28;20179;-75
2023/07/09 09:36:58;;;;;;;5.50;5.00;;;31.10;48.20;;;;;;5089239;28;20903;-79
2023/07/09 09:39:25;;;;;;;7.00;5.40;;;31.10;48.00;;;;;;5107565;28;20441;-74
2023/07/09 09:41:57;;;;;;;7.40;5.60;;;31.20;47.70;;;;;;5105628;28;20389;-77
2023/07/09 09:44:27;;;;;;;5.80;5.20;;;31.30;47.70;;;;;;5107090;28;20678;-73
2023/07/09 09:46:56;;;;;;;6.13;5.03;;;31.40;47.80;;;;;;5035613;28;20464;-76
2023/07/09 09:49:22;;;;;;;6.40;5.80;;;31.50;47.80;;;;;;5064565;28;20424;-75
2023/07/09 09:51:48;;;;;;;6.83;6.10;;;31.60;47.70;;;;;;5049817;28;20482;-75
2023/07/09 09:54:19;;;;;;;7.43;5.50;;;31.70;47.50;;;;;;5104315;28;20195;-78
2023/07/09 09:56:47;;;;;;;6.23;4.67;;;31.70;47.40;;;;;;5096861;28;20395;-78
2023/07/09 09:59:19;;;;;;;6.47;5.40;;;31.80;47.40;;;;;;5107940;28;20441;-76
2023/07/09 10:01:45;;;;;;;6.30;5.70;;;31.90;47.20;;;;;;5074778;28;20487;-78
2023/07/09 10:04:17;;;;;;;8.93;5.23;;;31.90;47.00;;;;;;5068820;28;20509;-75
2023/07/09 10:06:50;;;;;;;8.20;6.30;;;32.00;47.00;;;;;;5034193;28;20213;-76
2023/07/09 10:09:42;;;;;;;10.10;6.70;;;32.00;46.40;;;;;;5103068;28;20508;-76
2023/07/09 10:12:34;;;;;;;9.63;6.20;;;32.10;46.60;;;;;;5075306;28;20377;-76
2023/07/09 10:15:16;;;;;;;6.03;5.43;;;32.10;46.70;;;;;;5049271;28;20391;-77
2023/07/09 10:18:05;;;;;;;7.10;5.83;;;32.20;46.60;;;;;;5079386;28;20425;-77
2023/07/09 10:20:36;;;;;;;7.80;6.30;;;32.30;46.80;;;;;;5076905;28;20471;-78
2023/07/09 10:23:07;;;;;;;8.53;5.90;;;32.30;45.80;;;;;;5091305;28;20401;-77
2023/07/09 10:25:46;;;;;;;6.83;5.20;;;32.40;46.10;;;;;;5091025;28;20414;-77
2023/07/09 10:28:47;;;;;;;4.97;4.37;;;32.40;45.80;;;;;;5108035;28;20411;-76
2023/07/09 10:31:49;;;;;;;6.40;5.57;;;32.50;45.50;;;;;;5063538;28;20881;-79
2023/07/09 10:34:46;;;;;;;6.60;5.90;;;32.60;45.20;;;;;;5105824;28;20407;-78
2023/07/09 10:37:11;;;;;;;6.83;5.70;;;32.80;44.60;;;;;;5094416;28;20430;-77
2023/07/09 10:39:52;;;;;;;5.37;4.87;;;32.90;44.40;;;;;;5110922;28;20420;-77
2023/07/09 10:42:30;;;;;;;6.03;5.43;;;33.00;43.80;;;;;;5095180;28;20172;-79
2023/07/09 10:45:11;;;;;;;7.00;6.20;;;33.10;43.80;;;;;;5111684;28;20452;-78
2023/07/09 10:47:57;;;;;;;9.10;5.47;;;33.10;43.20;;;;;;5075222;28;20912;-78
2023/07/09 10:50:39;;;;;;;7.10;4.70;;;33.20;42.70;;;;;;5076264;28;20441;-79
2023/07/09 10:53:18;;;;;;;7.20;6.00;;;33.40;42.70;;;;;;5064268;28;20403;-79
2023/07/09 10:55:50;;;;;;;8.20;5.40;;;33.50;42.00;;;;;;5109678;28;20397;-79
2023/07/09 10:58:41;;;;;;;10.10;5.47;;;33.60;42.20;;;;;;5101879;28;20462;-79
2023/07/09 11:01:08;;;;;;;6.47;5.67;;;33.70;42.50;;;;;;5044792;28;20500;-78
2023/07/09 11:03:39;;;;;;;5.93;5.30;;;33.70;42.20;;;;;;5044932;28;20483;-79
2023/07/09 11:06:17;;;;;;;5.63;4.67;;;33.70;40.90;;;;;;5059147;28;20416;-80
2023/07/09 11:08:44;;;;;;;5.57;5.03;;;33.80;41.00;;;;;;5061635;28;20454;-80
2023/07/09 11:11:20;;;;;;;7.53;5.00;;;33.90;39.80;;;;;;5061347;28;20428;-79
2023/07/09 11:13:57;;;;;;;6.03;4.87;;;34.00;39.70;;;;;;5098456;28;20403;-79
2023/07/09 11:16:45;;;;;;;5.00;4.60;;;34.10;39.60;;;;;;5055456;28;20527;-79
2023/07/09 11:19:19;;;;;;;4.47;4.07;;;34.20;39.10;;;;;;5049853;28;20410;-78
2023/07/09 11:22:11;;;;;;;5.90;5.20;;;34.20;39.20;;;;;;5050157;28;20907;-78
2023/07/09 11:24:53;;;;;;;9.20;5.33;;;34.30;39.00;;;;;;5064159;28;20396;-79
2023/07/09 11:27:27;;;;;;;7.03;5.93;;;34.40;38.50;;;;;;5090758;28;20418;-77
2023/07/09 11:29:57;;;;;;;6.63;5.90;;;34.50;38.40;;;;;;5086202;28;20751;-77
2023/07/09 11:32:23;;;;;;;9.23;5.63;;;34.50;38.30;;;;;;5053620;28;20413;-78
2023/07/09 11:34:49;;;;;;;5.90;5.30;;;34.70;37.80;;;;;;5069257;28;20469;-78
2023/07/09 11:37:16;;;;;;;5.77;5.17;;;34.70;38.00;;;;;;5050860;28;20225;-77
2023/07/09 11:39:43;;;;;;;5.60;5.00;;;34.90;37.90;;;;;;5061486;28;20675;-77
2023/07/09 11:42:25;;;;;;;5.73;5.13;;;35.00;37.10;;;;;;5090196;28;20486;-78
2023/07/09 11:44:58;;;;;;;5.80;5.30;;;35.10;37.20;;;;;;5101127;28;20436;-79
2023/07/09 11:47:53;;;;;;;6.63;5.00;;;35.20;37.00;;;;;;5077970;28;20688;-79
2023/07/09 11:50:31;;;;;;;6.50;4.60;;;35.30;36.40;;;;;;5088755;28;20434;-79
2023/07/09 11:53:36;;;;;;;6.00;5.23;;;35.50;35.60;;;;;;5109759;28;20402;-78
2023/07/09 11:56:02;;;;;;;5.50;5.00;;;35.50;35.30;;;;;;5079637;28;20424;-78
2023/07/09 11:58:28;;;;;;;5.03;4.33;;;35.60;35.00;;;;;;5092398;28;20393;-77
2023/07/09 12:01:01;;;;;;;6.40;5.00;;;35.80;35.00;;;;;;5078056;28;20496;-76
2023/07/09 12:03:35;;;;;;;4.80;4.30;;;36.10;33.50;;;;;;5053239;28;20303;-79
2023/07/09 12:06:25;;;;;;;6.83;4.70;;;36.40;32.60;;;;;;5065566;28;20423;-79
2023/07/09 12:08:52;;;;;;;9.17;5.20;;;36.70;31.00;;;;;;5091307;28;20420;-78
2023/07/09 12:11:20;;;;;;;4.47;3.90;;;36.90;30.60;;;;;;5095465;28;20669;-79
2023/07/09 12:13:46;;;;;;;5.97;5.00;;;37.10;30.60;;;;;;5055038;28;20446;-78
2023/07/09 12:16:27;;;;;;;5.10;4.60;;;37.30;30.30;;;;;;5074972;28;20450;-78
2023/07/09 12:18:53;;;;;;;7.33;6.40;;;37.40;30.00;;;;;;5095081;28;20263;-77
2023/07/09 12:21:20;;;;;;;6.97;6.27;;;37.70;29.80;;;;;;5109969;28;20748;-79
2023/07/09 12:23:46;;;;;;;4.70;4.30;;;37.90;29.30;;;;;;5089563;28;20517;-78
2023/07/09 12:26:17;;;;;;;5.13;4.63;;;38.00;28.80;;;;;;5090260;28;20522;-77
2023/07/09 12:28:49;;;;;;;5.23;4.73;;;38.00;28.90;;;;;;5073634;28;20190;-78
2023/07/09 12:31:16;;;;;;;5.77;4.73;;;38.10;28.80;;;;;;5090559;28;20490;-78
2023/07/09 12:33:49;;;;;;;6.87;5.00;;;38.30;28.70;;;;;;5088004;28;20457;-80
2023/07/09 12:36:16;;;;;;;9.47;6.33;;;38.30;28.70;;;;;;5092025;28;20430;-79
2023/07/09 12:38:44;;;;;;;5.60;5.10;;;38.30;28.70;;;;;;5092946;28;20644;-78
2023/07/09 12:41:25;;;;;;;6.40;5.40;;;38.20;28.90;;;;;;5109083;28;20400;-78
2023/07/09 12:43:55;;;;;;;5.10;4.60;;;38.20;28.50;;;;;;5091995;28;20388;-80
2023/07/09 12:46:22;;;;;;;5.23;4.60;;;38.00;28.80;;;;;;5078843;28;20403;-79
2023/07/09 12:48:50;;;;;;;6.50;5.90;;;37.80;29.10;;;;;;5090326;28;20438;-79
2023/07/09 12:51:24;;;;;;;10.87;9.20;;;37.60;29.20;;;;;;5108236;28;20824;-78
2023/07/09 12:54:10;;;;;;;8.40;7.47;;;37.50;29.40;;;;;;5074604;28;20442;-79
2023/07/09 12:56:35;;;;;;;6.40;5.80;;;37.40;29.70;;;;;;5070092;28;20735;-78
2023/07/09 12:59:02;;;;;;;5.80;5.27;;;37.30;29.70;;;;;;5043611;28;20493;-78